Time,TemperatureF,DewpointF,PressureIn,WindDirection,WindDirectionDegrees,WindSpeedMPH,WindSpeedGustMPH,Humidity,HourlyPrecipIn,Conditions,Clouds,dailyrainin,SolarRadiationWatts/m^2,SoftwareType,DateUTC
2013-01-27 00:10:00,43.7,-99.9,19.99,ENE,78,8.0,8.0,255,0.00,,,0.00,0,Wunderground v.1.15,2013-01-27 05:10:00,
2013-01-27 00:20:00,43.5,-99.9,19.99,ENE,74,4.0,4.0,255,0.00,,,0.00,0,Wunderground v.1.15,2013-01-27 05:20:00,
2013-01-27 00:30:00,43.4,-99.9,19.99,East,86,4.0,4.0,255,0.00,,,0.00,0,Wunderground v.1.15,2013-01-27 05:30:00,
2013-01-27 00:40:00,43.0,-99.9,19.99,ENE,63,8.0,8.0,255,0.00,,,0.00,0,Wunderground v.1.15,2013-01-27 05:40:00,
2013-01-27 00:50:00,42.7,-99.9,19.98,NE,55,4.0,4.0,255,0.00,,,0.00,0,Wunderground v.1.15,2013-01-27 05:50:00,
2013-01-27 01:00:00,42.7,-99.9,19.99,NNE,28,2.0,2.0,255,0.00,,,0.00,0,Wunderground v.1.15,2013-01-27 06:00:00,
2013-01-27 01:10:00,42.5,-99.9,19.99,NE,42,4.0,4.0,255,0.00,,,0.00,0,Wunderground v.1.15,2013-01-27 06:10:00,
2013-01-27 01:20:00,42.6,-99.9,19.99,NE,52,6.0,6.0,255,0.00,,,0.00,0,Wunderground v.1.15,2013-01-27 06:20:00,
2013-01-27 01:30:00,42.6,-99.9,19.99,ENE,71,6.0,6.0,255,0.00,,,0.00,0,Wunderground v.1.15,2013-01-27 06:30:00,
2013-01-27 01:40:00,42.6,-99.9,19.99,NE,44,6.0,6.0,255,0.00,,,0.00,0,Wunderground v.1.15,2013-01-27 06:40:00,
2013-01-27 01:50:00,42.7,-99.9,19.98,East,88,10.0,10.0,255,0.00,,,0.00,0,Wunderground v.1.15,2013-01-27 06:50:00,
2013-01-27 02:00:00,42.6,-99.9,19.99,ENE,74,4.0,4.0,255,0.00,,,0.00,0,Wunderground v.1.15,2013-01-27 07:00:00,
2013-01-27 02:19:00,42.3,-99.9,19.99,NE,52,6.0,6.0,255,0.00,,,0.00,0,Wunderground v.1.15,2013-01-27 07:19:00,
2013-01-27 02:29:00,41.9,-99.9,19.99,ENE,75,3.0,3.0,255,0.00,,,0.00,0,Wunderground v.1.15,2013-01-27 07:29:00,
2013-01-27 02:39:00,41.9,-99.9,19.99,ENE,74,8.0,8.0,255,0.00,,,0.00,0,Wunderground v.1.15,2013-01-27 07:39:00,
2013-01-27 02:51:00,41.9,-99.9,19.99,ESE,109,5.0,5.0,255,0.00,,,0.00,0,Wunderground v.1.15,2013-01-27 07:51:00,
2013-01-27 03:01:00,42.2,-99.9,19.99,East,84,5.0,5.0,255,0.00,,,0.00,0,Wunderground v.1.15,2013-01-27 08:01:00,
2013-01-27 03:10:00,42.0,-99.9,19.98,NE,49,6.0,6.0,255,0.00,,,0.00,0,Wunderground v.1.15,2013-01-27 08:10:00,
2013-01-27 03:20:00,42.0,-99.9,19.99,ENE,72,3.0,3.0,255,0.00,,,0.00,0,Wunderground v.1.15,2013-01-27 08:20:00,
2013-01-27 03:30:00,41.7,-99.9,19.98,East,90,4.0,4.0,255,0.00,,,0.00,0,Wunderground v.1.15,2013-01-27 08:30:00,
2013-01-27 03:40:00,41.5,-99.9,19.98,NE,42,7.0,7.0,255,0.00,,,0.00,0,Wunderground v.1.15,2013-01-27 08:40:00,
2013-01-27 03:50:00,41.1,-99.9,19.99,East,89,4.0,4.0,255,0.00,,,0.00,0,Wunderground v.1.15,2013-01-27 08:50:00,
2013-01-27 04:00:00,40.9,-99.9,19.98,ENE,71,4.0,4.0,255,0.00,,,0.00,0,Wunderground v.1.15,2013-01-27 09:00:00,
2013-01-27 04:10:00,40.6,-99.9,19.99,ENE,60,6.0,6.0,255,0.00,,,0.00,0,Wunderground v.1.15,2013-01-27 09:10:00,
2013-01-27 04:20:00,40.4,-99.9,19.99,ENE,65,4.0,4.0,255,0.00,,,0.00,0,Wunderground v.1.15,2013-01-27 09:20:00,
2013-01-27 04:30:00,40.2,-99.9,19.99,NNE,24,3.0,3.0,255,0.00,,,0.00,0,Wunderground v.1.15,2013-01-27 09:30:00,
2013-01-27 04:40:00,40.0,-99.9,19.99,NNE,33,5.0,5.0,255,0.00,,,0.00,0,Wunderground v.1.15,2013-01-27 09:40:00,
2013-01-27 04:50:00,39.9,-99.9,19.99,ENE,69,4.0,4.0,255,0.00,,,0.00,0,Wunderground v.1.15,2013-01-27 09:50:00,
2013-01-27 05:00:00,39.6,-99.9,19.99,East,82,6.0,6.0,255,0.00,,,0.00,0,Wunderground v.1.15,2013-01-27 10:00:00,
2013-01-27 05:10:00,39.3,-99.9,19.99,ENE,62,6.0,6.0,255,0.00,,,0.00,0,Wunderground v.1.15,2013-01-27 10:10:00,
2013-01-27 05:20:00,39.1,-99.9,19.99,NE,53,5.0,5.0,255,0.00,,,0.00,0,Wunderground v.1.15,2013-01-27 10:20:00,
2013-01-27 05:30:00,39.1,-99.9,19.99,NE,43,6.0,6.0,255,0.00,,,0.00,0,Wunderground v.1.15,2013-01-27 10:30:00,
2013-01-27 05:39:00,39.0,-99.9,19.99,NE,41,8.0,8.0,255,0.00,,,0.00,0,Wunderground v.1.15,2013-01-27 10:39:00,
2013-01-27 05:46:00,38.7,-99.9,19.99,NE,38,5.0,8.0,255,0.00,,,0.00,0,Wunderground v.1.15,2013-01-27 10:46:00,
2013-01-27 06:01:00,38.2,-99.9,19.99,NE,37,5.0,5.0,255,0.00,,,0.00,0,Wunderground v.1.15,2013-01-27 11:01:00,
2013-01-27 06:10:00,38.0,-99.9,19.99,ENE,63,4.0,4.0,255,0.00,,,0.00,0,Wunderground v.1.15,2013-01-27 11:10:00,
2013-01-27 06:21:00,37.8,-99.9,19.99,ENE,65,6.0,6.0,255,0.00,,,0.00,0,Wunderground v.1.15,2013-01-27 11:21:00,
2013-01-27 06:30:00,37.8,-99.9,19.99,East,79,5.0,5.0,255,0.00,,,0.00,0,Wunderground v.1.15,2013-01-27 11:30:00,
2013-01-27 06:40:00,37.5,-99.9,19.99,NE,39,4.0,4.0,255,0.00,,,0.00,0,Wunderground v.1.15,2013-01-27 11:40:00,
2013-01-27 06:50:00,37.5,-99.9,19.99,NE,49,3.0,3.0,255,0.00,,,0.00,0,Wunderground v.1.15,2013-01-27 11:50:00,
2013-01-27 07:00:00,37.3,-99.9,19.99,NE,38,4.0,4.0,255,0.00,,,0.00,0,Wunderground v.1.15,2013-01-27 12:00:00,
2013-01-27 07:10:00,37.2,-99.9,19.99,NE,34,4.0,4.0,255,0.00,,,0.00,0,Wunderground v.1.15,2013-01-27 12:10:00,
2013-01-27 07:20:00,37.0,-99.9,19.98,NE,43,7.0,7.0,255,0.00,,,0.00,0,Wunderground v.1.15,2013-01-27 12:20:00,
2013-01-27 07:30:00,37.0,-99.9,19.98,NE,51,3.0,3.0,255,0.00,,,0.00,0,Wunderground v.1.15,2013-01-27 12:30:00,
2013-01-27 07:40:00,37.2,-99.9,19.98,NNE,28,6.0,6.0,255,0.00,,,0.00,0,Wunderground v.1.15,2013-01-27 12:40:00,
2013-01-27 07:50:00,37.5,-99.9,19.99,NE,35,7.0,7.0,255,0.00,,,0.00,0,Wunderground v.1.15,2013-01-27 12:50:00,
2013-01-27 08:00:00,38.2,-99.9,19.99,NNE,32,5.0,5.0,255,0.00,,,0.00,0,Wunderground v.1.15,2013-01-27 13:00:00,
2013-01-27 08:10:00,38.8,-99.9,19.99,NE,49,4.0,4.0,255,0.00,,,0.00,0,Wunderground v.1.15,2013-01-27 13:10:00,
2013-01-27 08:20:00,39.3,-99.9,19.99,ENE,59,8.0,8.0,255,0.00,,,0.00,0,Wunderground v.1.15,2013-01-27 13:20:00,
2013-01-27 08:30:00,40.0,-99.9,19.99,NE,39,1.0,1.0,255,0.00,,,0.00,0,Wunderground v.1.15,2013-01-27 13:30:00,
2013-01-27 08:39:00,40.2,-99.9,19.99,ENE,73,5.0,5.0,255,0.00,,,0.00,0,Wunderground v.1.15,2013-01-27 13:39:00,
2013-01-27 08:46:00,41.1,-99.9,19.99,ENE,76,6.0,6.0,255,0.00,,,0.00,0,Wunderground v.1.15,2013-01-27 13:46:00,
2013-01-27 09:00:00,41.4,-99.9,19.99,ENE,73,4.0,4.0,255,0.00,,,0.00,0,Wunderground v.1.15,2013-01-27 14:00:00,
2013-01-27 09:10:00,42.3,-99.9,19.99,NE,49,6.0,6.0,255,0.00,,,0.00,0,Wunderground v.1.15,2013-01-27 14:10:00,
2013-01-27 09:20:00,42.9,-99.9,19.99,NE,46,3.0,3.0,255,0.00,,,0.00,0,Wunderground v.1.15,2013-01-27 14:20:00,
2013-01-27 09:30:00,43.8,-99.9,19.99,NE,35,11.0,11.0,255,0.00,,,0.00,0,Wunderground v.1.15,2013-01-27 14:30:00,
2013-01-27 09:40:00,45.0,-99.9,19.99,ENE,58,6.0,6.0,255,0.00,,,0.00,0,Wunderground v.1.15,2013-01-27 14:40:00,
2013-01-27 09:50:00,46.4,-99.9,19.98,ENE,60,5.0,5.0,255,0.00,,,0.00,0,Wunderground v.1.15,2013-01-27 14:50:00,
2013-01-27 10:00:00,47.0,-99.9,19.98,East,86,9.0,9.0,255,0.00,,,0.00,0,Wunderground v.1.15,2013-01-27 15:00:00,
2013-01-27 10:10:00,47.9,-99.9,19.99,East,81,6.0,6.0,255,0.00,,,0.00,0,Wunderground v.1.15,2013-01-27 15:10:00,
2013-01-27 10:20:00,49.6,-99.9,19.99,NE,37,2.0,2.0,255,0.00,,,0.00,0,Wunderground v.1.15,2013-01-27 15:20:00,
2013-01-27 10:30:00,50.0,-99.9,19.98,ESE,123,3.0,3.0,255,0.00,,,0.00,0,Wunderground v.1.15,2013-01-27 15:30:00,
2013-01-27 10:40:00,49.8,-99.9,19.99,East,98,5.0,5.0,255,0.00,,,0.00,0,Wunderground v.1.15,2013-01-27 15:40:00,
2013-01-27 10:50:00,49.4,-99.9,19.99,ESE,113,8.0,8.0,255,0.00,,,0.00,0,Wunderground v.1.15,2013-01-27 15:50:00,
2013-01-27 11:00:00,49.8,-99.9,19.99,ESE,119,7.0,7.0,255,0.00,,,0.00,0,Wunderground v.1.15,2013-01-27 16:00:00,
2013-01-27 11:10:00,50.3,-99.9,19.99,ENE,72,10.0,10.0,255,0.00,,,0.00,0,Wunderground v.1.15,2013-01-27 16:10:00,
2013-01-27 11:20:00,49.3,-99.9,19.99,ENE,61,4.0,4.0,255,0.00,,,0.00,0,Wunderground v.1.15,2013-01-27 16:20:00,
2013-01-27 11:29:00,49.4,-99.9,19.99,ENE,76,11.0,11.0,255,0.00,,,0.00,0,Wunderground v.1.15,2013-01-27 16:29:00,
2013-01-27 11:39:00,49.8,-99.9,19.99,East,89,8.0,8.0,255,0.00,,,0.00,0,Wunderground v.1.15,2013-01-27 16:39:00,
2013-01-27 11:51:00,49.5,-99.9,19.99,ESE,123,18.0,18.0,255,0.00,,,0.00,0,Wunderground v.1.15,2013-01-27 16:51:00,
2013-01-27 12:00:00,49.1,-99.9,19.99,ENE,74,11.0,11.0,255,0.00,,,0.00,0,Wunderground v.1.15,2013-01-27 17:00:00,
2013-01-27 12:10:00,49.9,-99.9,19.99,East,101,4.0,4.0,255,0.00,,,0.00,0,Wunderground v.1.15,2013-01-27 17:10:00,
2013-01-27 12:20:00,49.2,-99.9,19.98,SE,129,12.0,12.0,255,0.00,,,0.00,0,Wunderground v.1.15,2013-01-27 17:20:00,
2013-01-27 12:30:00,49.8,-99.9,19.99,ESE,123,9.0,9.0,255,0.00,,,0.00,0,Wunderground v.1.15,2013-01-27 17:30:00,
2013-01-27 12:40:00,50.5,-99.9,19.99,NE,54,7.0,7.0,255,0.00,,,0.00,0,Wunderground v.1.15,2013-01-27 17:40:00,
2013-01-27 12:50:00,49.2,-99.9,19.99,East,101,8.0,8.0,255,0.00,,,0.00,0,Wunderground v.1.15,2013-01-27 17:50:00,
2013-01-27 13:00:00,49.8,-99.9,19.98,East,98,6.0,6.0,255,0.00,,,0.00,0,Wunderground v.1.15,2013-01-27 18:00:00,
2013-01-27 13:10:00,49.5,-99.9,19.99,SE,124,19.0,19.0,255,0.00,,,0.00,0,Wunderground v.1.15,2013-01-27 18:10:00,
2013-01-27 13:20:00,50.0,-99.9,19.98,NE,44,5.0,5.0,255,0.00,,,0.00,0,Wunderground v.1.15,2013-01-27 18:20:00,
2013-01-27 13:30:00,49.9,-99.9,19.99,SE,141,14.0,14.0,255,0.00,,,0.00,0,Wunderground v.1.15,2013-01-27 18:30:00,
2013-01-27 13:40:00,49.9,-99.9,19.99,ENE,68,9.0,9.0,255,0.00,,,0.00,0,Wunderground v.1.15,2013-01-27 18:40:00,
2013-01-27 13:50:00,50.0,-99.9,19.98,SE,127,11.0,11.0,255,0.00,,,0.00,0,Wunderground v.1.15,2013-01-27 18:50:00,
2013-01-27 14:00:00,49.9,-99.9,19.99,East,96,7.0,7.0,255,0.00,,,0.00,0,Wunderground v.1.15,2013-01-27 19:00:00,
2013-01-27 14:10:00,49.6,-99.9,19.99,ENE,61,8.0,8.0,255,0.00,,,0.00,0,Wunderground v.1.15,2013-01-27 19:10:00,
2013-01-27 14:20:00,48.7,-99.9,19.99,East,96,10.0,10.0,255,0.00,,,0.00,0,Wunderground v.1.15,2013-01-27 19:20:00,
2013-01-27 14:30:00,49.3,-99.9,19.99,NE,38,6.0,6.0,255,0.00,,,0.00,0,Wunderground v.1.15,2013-01-27 19:30:00,
2013-01-27 14:39:00,49.3,-99.9,19.99,East,81,11.0,11.0,255,0.00,,,0.00,0,Wunderground v.1.15,2013-01-27 19:39:00,
2013-01-27 14:51:00,49.5,-99.9,19.98,SE,124,8.0,8.0,255,0.00,,,0.00,0,Wunderground v.1.15,2013-01-27 19:51:00,
2013-01-27 15:00:00,48.8,-99.9,19.99,ESE,103,6.0,6.0,255,0.00,,,0.00,0,Wunderground v.1.15,2013-01-27 20:00:00,
2013-01-27 15:10:00,48.8,-99.9,19.99,ENE,78,8.0,8.0,255,0.00,,,0.00,0,Wunderground v.1.15,2013-01-27 20:10:00,
2013-01-27 15:20:00,48.9,-99.9,19.99,ENE,73,9.0,9.0,255,0.00,,,0.00,0,Wunderground v.1.15,2013-01-27 20:20:00,
2013-01-27 15:30:00,49.2,-99.9,19.99,East,96,5.0,5.0,255,0.00,,,0.00,0,Wunderground v.1.15,2013-01-27 20:30:00,
2013-01-27 15:40:00,48.6,-99.9,19.99,ESE,118,13.0,13.0,255,0.00,,,0.00,0,Wunderground v.1.15,2013-01-27 20:40:00,
2013-01-27 15:50:00,48.3,-99.9,19.99,NE,39,6.0,6.0,255,0.00,,,0.00,0,Wunderground v.1.15,2013-01-27 20:50:00,
2013-01-27 16:00:00,48.1,-99.9,19.99,ESE,107,6.0,6.0,255,0.00,,,0.00,0,Wunderground v.1.15,2013-01-27 21:00:00,
2013-01-27 16:10:00,47.8,-99.9,19.99,ESE,102,5.0,5.0,255,0.00,,,0.00,0,Wunderground v.1.15,2013-01-27 21:10:00,
2013-01-27 16:20:00,48.1,-99.9,19.99,SE,127,16.0,16.0,255,0.00,,,0.00,0,Wunderground v.1.15,2013-01-27 21:20:00,
2013-01-27 16:30:00,48.0,-99.9,19.99,ENE,65,12.0,12.0,255,0.00,,,0.00,0,Wunderground v.1.15,2013-01-27 21:30:00,
2013-01-27 16:40:00,47.5,-99.9,19.98,East,86,5.0,5.0,255,0.00,,,0.00,0,Wunderground v.1.15,2013-01-27 21:40:00,
2013-01-27 16:50:00,47.1,-99.9,19.99,East,93,10.0,10.0,255,0.00,,,0.00,0,Wunderground v.1.15,2013-01-27 21:50:00,
2013-01-27 16:59:00,47.0,-99.9,19.99,ESE,105,7.0,7.0,255,0.00,,,0.00,0,Wunderground v.1.15,2013-01-27 21:59:00,
2013-01-27 17:09:00,46.8,-99.9,19.99,ESE,120,14.0,14.0,255,0.00,,,0.00,0,Wunderground v.1.15,2013-01-27 22:09:00,
2013-01-27 17:19:00,46.3,-99.9,19.98,ENE,62,5.0,5.0,255,0.00,,,0.00,0,Wunderground v.1.15,2013-01-27 22:19:00,
2013-01-27 17:30:00,46.0,-99.9,19.99,ENE,75,14.0,14.0,255,0.00,,,0.00,0,Wunderground v.1.15,2013-01-27 22:30:00,
2013-01-27 17:39:00,45.7,-99.9,19.99,East,85,5.0,5.0,255,0.00,,,0.00,0,Wunderground v.1.15,2013-01-27 22:39:00,
2013-01-27 17:51:00,45.3,-99.9,19.99,East,94,7.0,7.0,255,0.00,,,0.00,0,Wunderground v.1.15,2013-01-27 22:51:00,
2013-01-27 18:01:00,45.2,-99.9,19.98,ESE,114,12.0,12.0,255,0.00,,,0.00,0,Wunderground v.1.15,2013-01-27 23:01:00,
2013-01-27 18:10:00,44.8,-99.9,19.99,East,90,5.0,5.0,255,0.00,,,0.00,0,Wunderground v.1.15,2013-01-27 23:10:00,
2013-01-27 18:20:00,44.6,-99.9,19.99,ENE,78,3.0,3.0,255,0.00,,,0.00,0,Wunderground v.1.15,2013-01-27 23:20:00,
2013-01-27 18:30:00,44.4,-99.9,19.99,ESE,123,6.0,6.0,255,0.00,,,0.00,0,Wunderground v.1.15,2013-01-27 23:30:00,
2013-01-27 18:40:00,44.1,-99.9,19.99,East,82,6.0,6.0,255,0.00,,,0.00,0,Wunderground v.1.15,2013-01-27 23:40:00,
2013-01-27 18:50:00,44.0,-99.9,19.98,ENE,73,4.0,4.0,255,0.00,,,0.00,0,Wunderground v.1.15,2013-01-27 23:50:00,
2013-01-27 19:00:00,43.9,-99.9,19.99,ESE,102,7.0,7.0,255,0.00,,,0.00,0,Wunderground v.1.15,2013-01-28 00:00:00,
2013-01-27 19:10:00,43.7,-99.9,19.99,ESE,115,9.0,9.0,255,0.00,,,0.00,0,Wunderground v.1.15,2013-01-28 00:10:00,
2013-01-27 19:20:00,43.7,-99.9,19.99,ENE,68,7.0,7.0,255,0.00,,,0.00,0,Wunderground v.1.15,2013-01-28 00:20:00,
2013-01-27 19:30:00,43.9,-99.9,19.99,NE,55,5.0,5.0,255,0.00,,,0.00,0,Wunderground v.1.15,2013-01-28 00:30:00,
2013-01-27 19:40:00,44.0,-99.9,19.99,ENE,77,6.0,6.0,255,0.00,,,0.00,0,Wunderground v.1.15,2013-01-28 00:40:00,
2013-01-27 19:50:00,43.9,-99.9,19.99,NE,37,5.0,5.0,255,0.00,,,0.00,0,Wunderground v.1.15,2013-01-28 00:50:00,
2013-01-27 19:59:00,43.6,-99.9,19.98,NE,37,5.0,5.0,255,0.00,,,0.00,0,Wunderground v.1.15,2013-01-28 00:59:00,
2013-01-27 20:09:00,43.3,-99.9,19.99,NE,51,3.0,3.0,255,0.00,,,0.00,0,Wunderground v.1.15,2013-01-28 01:09:00,
2013-01-27 20:19:00,43.4,-99.9,19.99,East,88,4.0,4.0,255,0.00,,,0.00,0,Wunderground v.1.15,2013-01-28 01:19:00,
2013-01-27 20:29:00,43.7,-99.9,19.98,East,93,3.0,3.0,255,0.00,,,0.00,0,Wunderground v.1.15,2013-01-28 01:29:00,
2013-01-27 20:39:00,43.7,-99.9,19.99,NNE,32,2.0,2.0,255,0.00,,,0.00,0,Wunderground v.1.15,2013-01-28 01:39:00,
2013-01-27 20:51:00,43.7,-99.9,19.98,ENE,77,2.0,2.0,255,0.00,,,0.00,0,Wunderground v.1.15,2013-01-28 01:51:00,
2013-01-27 21:01:00,43.6,-99.9,19.99,ENE,73,3.0,3.0,255,0.00,,,0.00,0,Wunderground v.1.15,2013-01-28 02:01:00,
2013-01-27 21:10:00,43.6,-99.9,19.99,NE,48,5.0,5.0,255,0.00,,,0.00,0,Wunderground v.1.15,2013-01-28 02:10:00,
2013-01-27 21:20:00,43.6,-99.9,19.99,East,89,6.0,6.0,255,0.00,,,0.00,0,Wunderground v.1.15,2013-01-28 02:20:00,
2013-01-27 21:30:00,43.8,-99.9,19.98,ENE,60,3.0,3.0,255,0.00,,,0.00,0,Wunderground v.1.15,2013-01-28 02:30:00,
2013-01-27 21:40:00,43.9,-99.9,19.99,East,90,2.0,2.0,255,0.00,,,0.00,0,Wunderground v.1.15,2013-01-28 02:40:00,
2013-01-27 21:50:00,43.9,-99.9,19.99,NE,44,4.0,4.0,255,0.00,,,0.00,0,Wunderground v.1.15,2013-01-28 02:50:00,
2013-01-27 22:00:00,44.1,-99.9,19.99,East,98,4.0,4.0,255,0.00,,,0.00,0,Wunderground v.1.15,2013-01-28 03:00:00,
2013-01-27 22:10:00,43.8,-99.9,19.99,NE,49,4.0,4.0,255,0.00,,,0.00,0,Wunderground v.1.15,2013-01-28 03:10:00,
2013-01-27 22:20:00,43.8,-99.9,19.99,NE,49,2.0,2.0,255,0.00,,,0.00,0,Wunderground v.1.15,2013-01-28 03:20:00,
2013-01-27 22:30:00,44.3,-99.9,19.99,NE,43,5.0,5.0,255,0.00,,,0.00,0,Wunderground v.1.15,2013-01-28 03:30:00,
2013-01-27 22:40:00,44.3,-99.9,19.99,NE,51,6.0,6.0,255,0.00,,,0.00,0,Wunderground v.1.15,2013-01-28 03:40:00,
2013-01-27 22:49:00,45.0,-99.9,19.99,East,85,8.0,8.0,255,0.00,,,0.00,0,Wunderground v.1.15,2013-01-28 03:49:00,
2013-01-27 22:59:00,45.7,-99.9,19.98,East,93,7.0,7.0,255,0.00,,,0.00,0,Wunderground v.1.15,2013-01-28 03:59:00,
2013-01-27 23:10:00,45.9,-99.9,19.99,ESE,108,4.0,4.0,255,0.00,,,0.00,0,Wunderground v.1.15,2013-01-28 04:10:00,
2013-01-27 23:19:00,45.9,-99.9,19.98,East,87,9.0,9.0,255,0.00,,,0.00,0,Wunderground v.1.15,2013-01-28 04:19:00,
2013-01-27 23:29:00,46.1,-99.9,19.99,ESE,109,8.0,8.0,255,0.00,,,0.00,0,Wunderground v.1.15,2013-01-28 04:29:00,
2013-01-27 23:40:00,46.3,-99.9,19.99,ENE,60,4.0,4.0,255,0.00,,,0.00,0,Wunderground v.1.15,2013-01-28 04:40:00,
2013-01-27 23:50:00,46.4,-99.9,19.99,NE,55,7.0,7.0,255,0.00,,,0.00,0,Wunderground v.1.15,2013-01-28 04:50:00,